createdAt,value
2023-01-08T00:01:21.591Z,93.50
2023-01-08T00:03:48.827Z,92.55
2023-01-08T00:06:19.403Z,92.62
2023-01-08T00:08:46.309Z,93.30
2023-01-08T00:11:13.708Z,92.57
2023-01-08T00:13:40.635Z,92.70
2023-01-08T00:16:13.947Z,93.18
2023-01-08T00:18:41.513Z,91.94
2023-01-08T00:21:08.688Z,92.72
2023-01-08T00:23:36.370Z,91.54
2023-01-08T00:26:13.624Z,91.62
2023-01-08T00:28:41.233Z,92.88
2023-01-08T00:31:10.609Z,92.65
2023-01-08T00:33:38.457Z,93.04
2023-01-08T00:36:13.684Z,93.65
2023-01-08T00:38:41.403Z,92.86
2023-01-08T00:41:08.328Z,93.00
2023-01-08T00:43:35.295Z,93.80
2023-01-08T00:46:02.773Z,93.67
2023-01-08T00:48:29.807Z,93.66
2023-01-08T00:50:57.043Z,94.10
2023-01-08T00:53:23.952Z,93.47
2023-01-08T00:55:50.893Z,93.63
2023-01-08T00:58:17.742Z,93.22
2023-01-08T01:00:44.837Z,91.86
2023-01-08T01:03:11.741Z,91.37
2023-01-08T01:05:38.657Z,90.58
2023-01-08T01:08:05.522Z,89.52
2023-01-08T01:10:32.398Z,89.80
2023-01-08T01:12:59.380Z,88.07
2023-01-08T01:15:26.273Z,86.08
2023-01-08T01:17:53.152Z,87.10
2023-01-08T01:20:20.209Z,89.42
2023-01-08T01:22:47.242Z,89.72
2023-01-08T01:25:14.214Z,90.24
2023-01-08T01:27:41.465Z,91.13
2023-01-08T01:30:09.599Z,90.96
2023-01-08T01:32:36.689Z,91.41
2023-01-08T01:35:03.948Z,92.77
2023-01-08T01:37:30.882Z,93.52
2023-01-08T01:39:58.119Z,93.91
2023-01-08T01:42:40.130Z,94.16
2023-01-08T01:45:22.388Z,93.47
2023-01-08T01:47:55.521Z,93.06
2023-01-08T01:50:39.979Z,91.78
2023-01-08T01:53:17.722Z,91.53
2023-01-08T01:55:46.253Z,91.09
2023-01-08T01:58:23.796Z,91.42
2023-01-08T02:00:52.579Z,91.29
2023-01-08T02:03:29.510Z,90.07
2023-01-08T02:06:22.481Z,89.47
2023-01-08T02:08:55.642Z,89.92
2023-01-08T02:11:40.705Z,90.77
2023-01-08T02:14:23.486Z,90.80
2023-01-08T02:17:01.142Z,92.52
2023-01-08T02:19:38.225Z,91.64
2023-01-08T02:22:15.083Z,91.35
2023-01-08T02:24:41.900Z,92.81
2023-01-08T02:27:09.754Z,92.79
2023-01-08T02:29:37.250Z,93.15
2023-01-08T02:32:04.591Z,92.94
2023-01-08T02:34:32.523Z,92.53
2023-01-08T02:37:00.799Z,91.56
2023-01-08T02:39:58.827Z,91.04
2023-01-08T02:43:06.991Z,91.55
2023-01-08T02:45:36.395Z,91.50
2023-01-08T02:48:27.239Z,90.58
2023-01-08T02:51:10.221Z,89.89
2023-01-08T02:53:43.186Z,89.08
2023-01-08T02:56:15.012Z,88.99
2023-01-08T02:58:43.201Z,88.81
2023-01-08T03:01:13.439Z,88.44
2023-01-08T03:03:46.154Z,88.33
2023-01-08T03:06:15.835Z,87.93
2023-01-08T03:08:45.650Z,87.30
2023-01-08T03:11:18.700Z,86.39
2023-01-08T03:13:52.367Z,87.02
2023-01-08T03:16:26.140Z,86.50
2023-01-08T03:19:00.418Z,86.54
2023-01-08T03:21:27.870Z,86.25
2023-01-08T03:23:56.579Z,87.18
2023-01-08T03:26:26.933Z,87.04
2023-01-08T03:28:57.567Z,86.11
2023-01-08T03:31:28.016Z,85.97
2023-01-08T03:33:56.490Z,86.06
2023-01-08T03:36:28.338Z,86.43
2023-01-08T03:39:04.118Z,85.31
2023-01-08T03:41:34.103Z,85.01
2023-01-08T03:44:01.070Z,84.95
2023-01-08T03:46:42.469Z,85.12
2023-01-08T03:49:10.323Z,85.72
2023-01-08T03:51:45.408Z,86.03
2023-01-08T03:54:15.707Z,85.92
2023-01-08T03:56:42.748Z,85.19
2023-01-08T03:59:11.831Z,86.24
2023-01-08T04:01:39.458Z,85.74
2023-01-08T04:04:07.294Z,85.00
2023-01-08T04:06:34.597Z,85.30
2023-01-08T04:09:01.710Z,84.98
2023-01-08T04:11:28.636Z,85.21
2023-01-08T04:13:56.008Z,85.95
2023-01-08T04:16:23.572Z,85.44
2023-01-08T04:18:50.453Z,85.46
2023-01-08T04:21:17.619Z,86.43
2023-01-08T04:23:44.601Z,86.04
2023-01-08T04:26:11.703Z,86.35
2023-01-08T04:28:38.674Z,85.92
2023-01-08T04:31:09.695Z,85.34
2023-01-08T04:33:37.193Z,85.72
2023-01-08T04:36:05.663Z,86.63
2023-01-08T04:38:32.613Z,86.67
2023-01-08T04:41:01.204Z,86.43
2023-01-08T04:43:28.787Z,86.34
2023-01-08T04:46:00.174Z,85.93
2023-01-08T04:48:28.423Z,85.37
2023-01-08T04:50:57.853Z,85.38
2023-01-08T04:53:24.901Z,85.70
2023-01-08T04:55:51.947Z,86.06
2023-01-08T04:58:18.989Z,86.43
2023-01-08T05:00:45.895Z,87.26
2023-01-08T05:03:13.303Z,87.51
2023-01-08T05:05:40.477Z,87.33
2023-01-08T05:08:07.391Z,86.89
2023-01-08T05:10:34.330Z,86.57
2023-01-08T05:13:01.550Z,86.63
2023-01-08T05:15:29.101Z,87.13
2023-01-08T05:18:00.761Z,87.02
2023-01-08T05:20:28.618Z,87.15
2023-01-08T05:22:56.553Z,86.77
2023-01-08T05:25:23.486Z,86.54
2023-01-08T05:27:50.747Z,86.20
2023-01-08T05:30:17.714Z,86.41
2023-01-08T05:32:44.627Z,85.99
2023-01-08T05:35:11.642Z,86.85
2023-01-08T05:37:38.765Z,86.84
2023-01-08T05:40:06.193Z,87.40
2023-01-08T05:42:36.878Z,87.31
2023-01-08T05:45:05.073Z,87.63
2023-01-08T05:47:34.722Z,87.24
2023-01-08T05:50:01.971Z,87.44
2023-01-08T05:52:29.462Z,88.01
2023-01-08T05:54:56.567Z,88.26
2023-01-08T05:57:23.628Z,88.42
2023-01-08T05:59:50.603Z,88.84
2023-01-08T06:02:17.521Z,88.51
2023-01-08T06:04:44.533Z,88.58
2023-01-08T06:07:11.498Z,88.71
2023-01-08T06:09:38.437Z,88.49
2023-01-08T06:12:05.484Z,88.52
2023-01-08T06:14:32.390Z,88.48
2023-01-08T06:16:59.321Z,88.45
2023-01-08T06:19:26.648Z,88.74
2023-01-08T06:21:53.673Z,88.71
2023-01-08T06:24:20.607Z,88.00
2023-01-08T06:26:47.487Z,88.39
2023-01-08T06:29:14.386Z,88.96
2023-01-08T06:31:41.383Z,88.87
2023-01-08T06:34:08.340Z,88.32
2023-01-08T06:36:35.330Z,88.14
2023-01-08T06:39:02.246Z,87.91
2023-01-08T06:41:29.102Z,87.78
2023-01-08T06:43:56.055Z,87.93
2023-01-08T06:46:22.954Z,87.86
2023-01-08T06:48:49.981Z,88.50
2023-01-08T06:51:16.903Z,88.81
2023-01-08T06:53:44.024Z,88.59
2023-01-08T06:56:11.193Z,88.45
2023-01-08T06:58:39.385Z,89.02
2023-01-08T07:01:06.785Z,88.95
2023-01-08T07:03:33.859Z,88.74
2023-01-08T07:06:03.043Z,89.02
2023-01-08T07:08:29.992Z,89.07
2023-01-08T07:10:56.940Z,89.20
2023-01-08T07:13:24.503Z,89.66
2023-01-08T07:15:51.551Z,89.30
2023-01-08T07:18:18.480Z,89.19
2023-01-08T07:20:45.356Z,88.65
2023-01-08T07:23:12.265Z,88.69
2023-01-08T07:25:39.313Z,88.50
2023-01-08T07:28:10.789Z,88.47
2023-01-08T07:30:37.862Z,88.59
2023-01-08T07:33:04.844Z,88.82
2023-01-08T07:35:31.875Z,88.72
2023-01-08T07:37:58.803Z,88.73
2023-01-08T07:40:25.787Z,88.52
2023-01-08T07:43:00.878Z,88.31
2023-01-08T07:45:29.359Z,87.46
2023-01-08T07:48:00.387Z,86.04
2023-01-08T07:50:27.924Z,86.13
2023-01-08T07:53:02.041Z,86.72
2023-01-08T07:55:30.881Z,87.46
2023-01-08T07:57:58.169Z,87.50
2023-01-08T08:00:25.617Z,87.17
2023-01-08T08:02:52.831Z,86.45
2023-01-08T08:05:19.795Z,85.69
2023-01-08T08:07:46.657Z,85.23
2023-01-08T08:10:13.681Z,84.78
2023-01-08T08:12:40.591Z,84.62
2023-01-08T08:15:08.607Z,83.80
2023-01-08T08:17:35.590Z,83.91
2023-01-08T08:20:02.539Z,83.42
2023-01-08T08:22:29.444Z,83.62
2023-01-08T08:24:56.371Z,82.95
2023-01-08T08:27:24.612Z,82.65
2023-01-08T08:29:51.575Z,82.54
2023-01-08T08:32:18.584Z,81.81
2023-01-08T08:34:45.558Z,81.44
2023-01-08T08:37:12.520Z,80.96
2023-01-08T08:39:39.433Z,80.70
2023-01-08T08:42:06.439Z,81.51
2023-01-08T08:44:33.484Z,80.06
2023-01-08T08:47:00.618Z,79.79
2023-01-08T08:49:27.592Z,78.88
2023-01-08T08:51:54.534Z,79.76
2023-01-08T08:54:21.464Z,79.73
2023-01-08T08:56:48.867Z,79.53
2023-01-08T08:59:15.879Z,78.59
2023-01-08T09:01:42.865Z,78.03
2023-01-08T09:04:09.903Z,78.00
2023-01-08T09:06:36.933Z,77.07
2023-01-08T09:09:04.258Z,77.34
2023-01-08T09:11:32.146Z,77.37
2023-01-08T09:13:59.039Z,76.99
2023-01-08T09:16:25.967Z,74.89
2023-01-08T09:18:53.014Z,74.29
2023-01-08T09:21:19.974Z,74.20
2023-01-08T09:23:49.325Z,73.84
2023-01-08T09:26:16.374Z,72.78
2023-01-08T09:28:43.234Z,72.65
2023-01-08T09:31:10.386Z,72.67
2023-01-08T09:33:37.634Z,72.95
2023-01-08T09:36:04.803Z,71.72
2023-01-08T09:38:31.758Z,71.35
2023-01-08T09:41:03.818Z,69.83
2023-01-08T09:43:35.001Z,70.59
2023-01-08T10:17:34.497Z,63.84
2023-01-08T10:20:01.586Z,64.25
2023-01-08T10:22:32.912Z,64.08
2023-01-08T10:25:10.058Z,61.90
2023-01-08T10:27:48.688Z,61.43
2023-01-08T10:30:22.856Z,61.11
2023-01-08T10:32:57.772Z,61.55
2023-01-08T10:35:33.999Z,59.64
2023-01-08T10:38:02.093Z,59.88
2023-01-08T10:40:37.060Z,60.07
2023-01-08T10:43:14.566Z,59.12
2023-01-08T10:45:44.016Z,59.42
2023-01-08T10:48:18.520Z,59.23
2023-01-08T10:50:45.392Z,60.33
2023-01-08T10:53:24.889Z,59.53
2023-01-08T10:56:03.031Z,60.46
2023-01-08T10:58:30.791Z,60.54
2023-01-08T11:01:13.177Z,60.34
2023-01-08T11:03:41.296Z,60.21
2023-01-08T11:06:27.678Z,59.46
2023-01-08T11:09:14.213Z,59.17
2023-01-08T11:11:41.194Z,59.78
2023-01-08T11:14:26.811Z,60.56
2023-01-08T11:16:55.365Z,60.10
2023-01-08T11:19:33.720Z,58.84
2023-01-08T11:22:08.665Z,59.97
2023-01-08T11:24:38.027Z,59.23
2023-01-08T11:27:17.369Z,59.36
2023-01-08T11:29:50.436Z,60.90
2023-01-08T11:32:29.387Z,61.43
2023-01-08T11:35:03.628Z,61.42
2023-01-08T11:37:40.466Z,62.48
2023-01-08T11:40:26.215Z,63.15
2023-01-08T11:43:07.452Z,63.69
2023-01-08T11:45:43.973Z,63.41
2023-01-08T11:48:29.040Z,64.20
2023-01-08T11:51:10.448Z,64.14
2023-01-08T11:53:44.991Z,65.70
2023-01-08T11:56:30.756Z,64.99
2023-01-08T11:59:12.922Z,66.18
2023-01-08T12:02:19.379Z,66.78
2023-01-08T12:05:04.960Z,66.57
2023-01-08T12:07:50.074Z,67.61
2023-01-08T12:10:25.949Z,67.89
2023-01-08T12:13:25.115Z,67.70
2023-01-08T12:16:31.156Z,67.46
2023-01-08T12:19:16.072Z,68.58
2023-01-08T12:22:02.298Z,70.03
2023-01-08T12:24:41.008Z,69.05
2023-01-08T12:27:54.584Z,69.03
2023-01-08T12:30:31.780Z,71.40
2023-01-08T12:33:04.743Z,70.03
2023-01-08T12:35:37.800Z,70.09
2023-01-08T12:38:13.577Z,70.89
2023-01-08T12:40:43.743Z,70.87
2023-01-08T12:43:19.433Z,71.53
2023-01-08T12:45:50.824Z,71.92
2023-01-08T12:48:28.558Z,72.19
2023-01-08T12:51:05.256Z,71.59
2023-01-08T12:53:32.760Z,71.91
2023-01-08T12:56:17.552Z,71.94
2023-01-08T12:58:56.449Z,72.57
2023-01-08T13:01:49.654Z,73.90
2023-01-08T13:04:20.727Z,73.97
2023-01-08T13:07:02.749Z,73.40
2023-01-08T13:09:31.123Z,73.19
2023-01-08T13:12:00.894Z,72.28
2023-01-08T13:14:28.031Z,74.05
2023-01-08T13:17:05.112Z,74.86
2023-01-08T13:19:42.510Z,74.22
2023-01-08T13:22:22.279Z,75.34
2023-01-08T13:24:49.148Z,75.20
2023-01-08T13:27:19.128Z,74.85
2023-01-08T13:29:47.738Z,74.06
2023-01-08T13:32:43.957Z,74.12
2023-01-08T13:35:16.536Z,73.86
2023-01-08T13:37:45.293Z,74.90
2023-01-08T13:40:49.768Z,75.63
2023-01-08T13:43:49.829Z,75.68
2023-01-08T13:46:19.319Z,76.08
2023-01-08T13:48:59.481Z,74.75
2023-01-08T13:51:35.234Z,74.64
2023-01-08T13:54:28.622Z,74.86
2023-01-08T13:57:04.822Z,74.86
2023-01-08T13:59:34.710Z,75.57
2023-01-08T14:02:01.937Z,75.28
2023-01-08T14:04:28.940Z,74.45
2023-01-08T14:07:14.984Z,75.02
2023-01-08T14:09:42.036Z,75.41
2023-01-08T14:12:15.044Z,76.07
2023-01-08T14:14:47.989Z,77.11
2023-01-08T14:17:20.240Z,76.81
2023-01-08T14:19:47.508Z,76.66
2023-01-08T14:22:32.501Z,77.65
2023-01-08T14:25:04.291Z,76.80
2023-01-08T14:27:32.411Z,76.72
2023-01-08T14:29:59.472Z,77.83
2023-01-08T14:32:31.172Z,78.31
2023-01-08T14:35:01.505Z,79.67
2023-01-08T14:37:28.455Z,78.99
2023-01-08T14:39:55.495Z,79.47
2023-01-08T14:42:53.390Z,79.45
2023-01-08T14:45:21.780Z,79.20
2023-01-08T14:47:53.460Z,78.92
2023-01-08T14:50:29.533Z,78.79
2023-01-08T14:53:18.238Z,79.64
2023-01-08T14:55:49.723Z,80.23
2023-01-08T14:58:20.868Z,80.81
2023-01-08T15:00:53.271Z,81.04
2023-01-08T15:03:38.635Z,80.77
2023-01-08T15:06:07.649Z,80.17
2023-01-08T15:08:44.857Z,80.19
2023-01-08T15:11:31.675Z,80.56
2023-01-08T15:13:59.151Z,81.84
2023-01-08T15:16:39.513Z,82.36
2023-01-08T15:19:10.432Z,82.60
2023-01-08T15:21:38.069Z,81.95
2023-01-08T15:24:07.141Z,81.78
2023-01-08T15:26:34.484Z,81.54
2023-01-08T15:29:19.681Z,81.84
2023-01-08T15:31:49.117Z,83.14
2023-01-08T15:34:20.927Z,83.41
2023-01-08T15:36:49.481Z,84.05
2023-01-08T15:39:16.611Z,83.84
2023-01-08T15:42:02.258Z,83.70
2023-01-08T15:44:29.239Z,83.01
2023-01-08T15:46:56.299Z,84.65
2023-01-08T15:49:23.409Z,84.67
2023-01-08T15:51:52.022Z,85.32
2023-01-08T15:54:21.472Z,85.98
2023-01-08T15:56:48.389Z,85.89
2023-01-08T15:59:15.389Z,84.99
2023-01-08T16:01:42.676Z,85.17
2023-01-08T16:04:09.708Z,84.96
2023-01-08T16:06:37.006Z,86.46
2023-01-08T16:09:04.136Z,87.01
2023-01-08T16:11:31.131Z,87.64
2023-01-08T16:13:58.193Z,87.46
2023-01-08T16:16:25.273Z,86.00
2023-01-08T16:18:52.834Z,86.68
2023-01-08T16:21:19.813Z,86.73
2023-01-08T16:23:46.775Z,87.61
2023-01-08T16:26:15.431Z,87.36
2023-01-08T16:28:42.722Z,87.94
2023-01-08T16:31:10.761Z,87.60
2023-01-08T16:33:37.781Z,86.93
2023-01-08T16:36:08.063Z,86.80
2023-01-08T16:38:36.093Z,88.52
2023-01-08T16:41:04.332Z,88.85
2023-01-08T16:43:38.067Z,88.71
2023-01-08T16:46:12.137Z,88.94
2023-01-08T16:48:39.271Z,88.21
2023-01-08T16:51:06.776Z,87.23
2023-01-08T16:53:35.745Z,88.59
2023-01-08T16:56:04.239Z,88.93
2023-01-08T16:58:32.037Z,89.10
2023-01-08T17:00:59.375Z,88.69
2023-01-08T17:03:26.412Z,88.22
2023-01-08T17:05:53.335Z,88.06
2023-01-08T17:08:20.733Z,87.43
2023-01-08T17:10:47.701Z,88.34
2023-01-08T17:13:14.625Z,88.89
2023-01-08T17:15:41.603Z,89.01
2023-01-08T17:18:11.713Z,88.54
2023-01-08T17:20:38.675Z,88.34
2023-01-08T17:23:05.671Z,87.53
2023-01-08T17:25:32.594Z,87.67
2023-01-08T17:27:59.456Z,87.88
2023-01-08T17:30:26.632Z,88.15
2023-01-08T17:32:53.577Z,87.92
2023-01-08T17:35:20.534Z,88.29
2023-01-08T17:37:47.728Z,87.96
2023-01-08T17:40:14.695Z,87.29
2023-01-08T17:42:41.817Z,87.68
2023-01-08T17:45:09.342Z,87.79
2023-01-08T17:47:37.385Z,88.23
2023-01-08T17:50:05.952Z,88.74
2023-01-08T17:52:33.181Z,88.20
2023-01-08T17:55:00.184Z,87.94
2023-01-08T17:57:27.342Z,87.52
2023-01-08T17:59:54.267Z,87.87
2023-01-08T18:02:21.395Z,88.34
2023-01-08T18:04:49.119Z,88.95
2023-01-08T18:07:16.478Z,89.13
2023-01-08T18:09:43.973Z,89.37
2023-01-08T18:12:11.200Z,88.83
2023-01-08T18:14:39.918Z,88.21
2023-01-08T18:17:07.218Z,88.64
2023-01-08T18:19:34.078Z,88.72
2023-01-08T18:22:01.257Z,89.60
2023-01-08T18:24:28.485Z,89.37
2023-01-08T18:26:55.463Z,89.33
2023-01-08T18:29:22.413Z,88.86
2023-01-08T18:31:49.545Z,87.45
2023-01-08T18:34:16.884Z,87.20
2023-01-08T18:36:43.816Z,88.35
2023-01-08T18:39:12.946Z,88.54
2023-01-08T18:41:58.420Z,88.37
2023-01-08T18:44:25.955Z,88.63
2023-01-08T18:46:54.090Z,87.98
2023-01-08T18:49:21.550Z,87.44
2023-01-08T18:51:48.818Z,87.68
2023-01-08T18:54:15.923Z,88.39
2023-01-08T18:56:42.956Z,88.66
2023-01-08T18:59:11.239Z,88.12
2023-01-08T19:01:39.448Z,88.45
2023-01-08T19:04:06.962Z,87.96
2023-01-08T19:06:33.881Z,87.91
2023-01-08T19:09:01.109Z,87.65
2023-01-08T19:11:28.520Z,88.34
2023-01-08T19:13:58.819Z,88.61
2023-01-08T19:16:26.758Z,88.65
2023-01-08T19:18:54.246Z,88.34
2023-01-08T19:21:21.820Z,87.90
2023-01-08T19:23:48.818Z,88.12
2023-01-08T19:26:16.444Z,88.58
2023-01-08T19:28:44.048Z,88.42
2023-01-08T19:31:14.109Z,88.79
2023-01-08T19:33:41.687Z,88.92
2023-01-08T19:36:12.838Z,88.92
2023-01-08T19:38:40.481Z,87.67
2023-01-08T19:41:27.093Z,87.41
2023-01-08T19:43:57.825Z,88.37
2023-01-08T19:46:25.267Z,88.57
2023-01-08T19:48:52.404Z,88.47
2023-01-08T19:51:19.773Z,87.81
2023-01-08T19:53:46.808Z,87.16
2023-01-08T19:56:14.857Z,86.96
2023-01-08T19:58:42.277Z,86.90
2023-01-08T20:01:15.738Z,87.82
2023-01-08T20:03:43.749Z,87.78
2023-01-08T20:06:16.533Z,87.73
2023-01-08T20:08:46.098Z,87.94
2023-01-08T20:11:15.513Z,87.67
2023-01-08T20:13:43.333Z,87.13
2023-01-08T20:16:14.165Z,87.37
2023-01-08T20:18:41.786Z,87.74
2023-01-08T20:21:21.053Z,88.16
2023-01-08T20:23:48.398Z,87.93
2023-01-08T20:26:18.726Z,87.46
2023-01-08T20:28:46.636Z,87.56
2023-01-08T20:31:16.531Z,87.55
2023-01-08T20:33:44.694Z,87.26
2023-01-08T20:36:17.643Z,87.45
2023-01-08T20:38:45.845Z,87.99
2023-01-08T20:41:12.895Z,87.19
2023-01-08T20:43:41.030Z,87.49
2023-01-08T20:46:13.944Z,86.64
2023-01-08T20:48:47.771Z,87.02
2023-01-08T20:51:15.970Z,87.07
2023-01-08T20:53:43.124Z,87.16
2023-01-08T20:56:14.587Z,87.67
2023-01-08T20:58:43.993Z,87.43
2023-01-08T21:01:23.153Z,87.09
2023-01-08T21:03:54.307Z,86.16
2023-01-08T21:06:24.121Z,86.63
2023-01-08T21:08:54.575Z,87.04
2023-01-08T21:11:21.788Z,87.54
2023-01-08T21:13:49.358Z,87.35
2023-01-08T21:16:20.371Z,87.44
2023-01-08T21:18:49.285Z,86.54
2023-01-08T21:21:25.053Z,86.68
2023-01-08T21:23:51.922Z,86.46
2023-01-08T21:26:19.385Z,86.96
2023-01-08T21:28:47.441Z,87.37
2023-01-08T21:31:17.522Z,87.41
2023-01-08T21:33:47.740Z,87.06
2023-01-08T21:36:19.105Z,85.97
2023-01-08T21:38:46.659Z,85.76
2023-01-08T21:41:37.201Z,86.21
2023-01-08T21:44:24.633Z,86.62
2023-01-08T21:46:51.742Z,86.42
2023-01-08T21:49:18.796Z,86.65
2023-01-08T21:52:04.013Z,86.17
2023-01-08T21:54:31.025Z,85.60
2023-01-08T21:56:57.931Z,85.68
2023-01-08T21:59:25.151Z,86.45
2023-01-08T22:01:52.182Z,86.48
2023-01-08T22:04:19.171Z,87.00
2023-01-08T22:06:46.052Z,86.57
2023-01-08T22:09:13.018Z,86.48
2023-01-08T22:11:39.929Z,86.36
2023-01-08T22:14:06.921Z,87.17
2023-01-08T22:16:34.069Z,87.19
2023-01-08T22:19:00.977Z,87.56
2023-01-08T22:21:27.867Z,86.71
2023-01-08T22:23:56.668Z,86.84
2023-01-08T22:26:24.299Z,85.93
2023-01-08T22:28:51.320Z,86.16
2023-01-08T22:31:18.316Z,86.83
2023-01-08T22:33:45.265Z,86.37
2023-01-08T22:36:13.993Z,86.75
2023-01-08T22:38:40.918Z,86.64
2023-01-08T22:41:24.662Z,86.35
2023-01-08T22:43:58.598Z,85.60
2023-01-08T22:46:25.906Z,85.94
2023-01-08T22:48:52.939Z,86.73
2023-01-08T22:51:26.381Z,86.43
2023-01-08T22:53:55.430Z,86.38
2023-01-08T22:56:22.855Z,85.75
2023-01-08T22:58:50.055Z,85.14
2023-01-08T23:01:25.995Z,85.14
2023-01-08T23:03:58.221Z,85.46
2023-01-08T23:06:27.609Z,85.43
2023-01-08T23:08:56.071Z,84.67
2023-01-08T23:11:23.817Z,84.95
2023-01-08T23:13:51.315Z,84.94
2023-01-08T23:16:19.865Z,84.36
2023-01-08T23:18:46.816Z,84.38
2023-01-08T23:21:17.463Z,84.38
2023-01-08T23:23:45.027Z,84.07
2023-01-08T23:26:32.234Z,84.03
2023-01-08T23:29:00.798Z,83.80
2023-01-08T23:31:29.930Z,82.97
2023-01-08T23:33:57.867Z,83.36
2023-01-08T23:36:25.773Z,83.65
2023-01-08T23:38:54.891Z,83.39
2023-01-08T23:41:26.059Z,83.57
2023-01-08T23:43:54.920Z,83.62
2023-01-08T23:46:21.831Z,83.79
2023-01-08T23:48:51.028Z,82.48
2023-01-08T23:51:18.015Z,82.94
2023-01-08T23:53:45.170Z,83.53
2023-01-08T23:56:12.626Z,83.76
2023-01-08T23:58:39.757Z,83.46
